sensor_id;sensor_type;location;lat;lon;timestamp;P1;durP1;ratioP1;P2;durP2;ratioP2
32242;SDS011;18731;42.830;24.390;2022-11-21T02:59:24;10.00;;;1.33;;
32242;SDS011;18731;42.830;24.390;2022-11-21T03:01:49;9.30;;;2.05;;
32242;SDS011;18731;42.830;24.390;2022-11-21T03:04:15;5.03;;;0.98;;
32242;SDS011;18731;42.830;24.390;2022-11-21T03:06:40;15.57;;;1.48;;
32242;SDS011;18731;42.830;24.390;2022-11-21T03:09:06;7.30;;;1.00;;
32242;SDS011;18731;42.830;24.390;2022-11-21T03:11:31;7.82;;;1.10;;
32242;SDS011;18731;42.830;24.390;2022-11-21T03:13:57;12.15;;;1.23;;
32242;SDS011;18731;42.830;24.390;2022-11-21T03:16:23;6.22;;;1.10;;
32242;SDS011;18731;42.830;24.390;2022-11-21T03:18:48;13.35;;;1.27;;
32242;SDS011;18731;42.830;24.390;2022-11-21T03:21:14;10.45;;;1.63;;
32242;SDS011;18731;42.830;24.390;2022-11-21T03:23:39;6.55;;;1.25;;
32242;SDS011;18731;42.830;24.390;2022-11-21T03:26:05;5.30;;;1.17;;
32242;SDS011;18731;42.830;24.390;2022-11-21T03:28:31;5.22;;;1.05;;
32242;SDS011;18731;42.830;24.390;2022-11-21T03:30:56;7.43;;;1.02;;
32242;SDS011;18731;42.830;24.390;2022-11-21T03:33:22;7.38;;;1.30;;
32242;SDS011;18731;42.830;24.390;2022-11-21T03:35:47;9.68;;;1.08;;
32242;SDS011;18731;42.830;24.390;2022-11-21T03:38:13;7.93;;;1.17;;
32242;SDS011;18731;42.830;24.390;2022-11-21T03:40:39;5.55;;;1.30;;
32242;SDS011;18731;42.830;24.390;2022-11-21T03:43:04;4.85;;;1.05;;
32242;SDS011;18731;42.830;24.390;2022-11-21T03:45:30;12.15;;;1.35;;
32242;SDS011;18731;42.830;24.390;2022-11-21T03:47:56;5.13;;;0.93;;
32242;SDS011;18731;42.830;24.390;2022-11-21T03:50:21;9.65;;;1.70;;
32242;SDS011;18731;42.830;24.390;2022-11-21T03:52:47;3.85;;;0.93;;
32242;SDS011;18731;42.830;24.390;2022-11-21T03:55:13;11.63;;;1.40;;
32242;SDS011;18731;42.830;24.390;2022-11-21T03:57:39;8.27;;;1.40;;
32242;SDS011;18731;42.830;24.390;2022-11-21T04:00:05;9.48;;;1.20;;
32242;SDS011;18731;42.830;24.390;2022-11-21T04:02:31;11.00;;;1.00;;
32242;SDS011;18731;42.830;24.390;2022-11-21T04:05:14;8.88;;;1.17;;
32242;SDS011;18731;42.830;24.390;2022-11-21T04:07:40;6.43;;;1.27;;
32242;SDS011;18731;42.830;24.390;2022-11-21T04:10:05;8.40;;;1.00;;
32242;SDS011;18731;42.830;24.390;2022-11-21T04:12:31;9.88;;;1.20;;
32242;SDS011;18731;42.830;24.390;2022-11-21T04:14:57;8.07;;;1.20;;
32242;SDS011;18731;42.830;24.390;2022-11-21T04:17:22;11.38;;;2.28;;
32242;SDS011;18731;42.830;24.390;2022-11-21T04:19:48;10.70;;;1.85;;
32242;SDS011;18731;42.830;24.390;2022-11-21T04:22:14;9.13;;;1.73;;
32242;SDS011;18731;42.830;24.390;2022-11-21T04:24:39;10.10;;;1.10;;
32242;SDS011;18731;42.830;24.390;2022-11-21T04:27:05;8.32;;;1.58;;
32242;SDS011;18731;42.830;24.390;2022-11-21T04:29:30;11.90;;;1.60;;
32242;SDS011;18731;42.830;24.390;2022-11-21T04:31:56;9.25;;;1.35;;
32242;SDS011;18731;42.830;24.390;2022-11-21T04:34:21;10.85;;;1.55;;
32242;SDS011;18731;42.830;24.390;2022-11-21T04:36:47;10.80;;;1.20;;
32242;SDS011;18731;42.830;24.390;2022-11-21T04:39:13;5.95;;;1.17;;
32242;SDS011;18731;42.830;24.390;2022-11-21T04:41:38;12.45;;;1.95;;
32242;SDS011;18731;42.830;24.390;2022-11-21T04:44:04;15.30;;;1.70;;
32242;SDS011;18731;42.830;24.390;2022-11-21T04:46:30;9.20;;;2.63;;
32242;SDS011;18731;42.830;24.390;2022-11-21T04:48:55;19.40;;;2.80;;
32242;SDS011;18731;42.830;24.390;2022-11-21T04:51:21;8.80;;;1.70;;
32242;SDS011;18731;42.830;24.390;2022-11-21T04:53:47;14.63;;;2.60;;
32242;SDS011;18731;42.830;24.390;2022-11-21T04:56:12;14.95;;;2.70;;
32242;SDS011;18731;42.830;24.390;2022-11-21T04:58:41;18.00;;;2.40;;
32242;SDS011;18731;42.830;24.390;2022-11-21T05:01:08;15.35;;;1.65;;
32242;SDS011;18731;42.830;24.390;2022-11-21T05:03:34;10.75;;;1.80;;
32242;SDS011;18731;42.830;24.390;2022-11-21T05:06:00;7.07;;;1.40;;
32242;SDS011;18731;42.830;24.390;2022-11-21T05:08:26;13.05;;;1.63;;
32242;SDS011;18731;42.830;24.390;2022-11-21T05:10:52;9.77;;;1.77;;
32242;SDS011;18731;42.830;24.390;2022-11-21T05:13:37;8.68;;;2.00;;
32242;SDS011;18731;42.830;24.390;2022-11-21T05:16:03;11.27;;;2.03;;
32242;SDS011;18731;42.830;24.390;2022-11-21T05:18:29;12.32;;;1.60;;
32242;SDS011;18731;42.830;24.390;2022-11-21T05:20:55;15.35;;;7.72;;
32242;SDS011;18731;42.830;24.390;2022-11-21T05:23:21;13.80;;;5.28;;
32242;SDS011;18731;42.830;24.390;2022-11-21T05:25:47;18.05;;;6.28;;
32242;SDS011;18731;42.830;24.390;2022-11-21T05:28:13;14.82;;;6.07;;
32242;SDS011;18731;42.830;24.390;2022-11-21T05:30:38;14.95;;;3.67;;
32242;SDS011;18731;42.830;24.390;2022-11-21T05:33:04;6.97;;;1.40;;
32242;SDS011;18731;42.830;24.390;2022-11-21T05:35:30;13.68;;;1.98;;
32242;SDS011;18731;42.830;24.390;2022-11-21T05:37:56;9.10;;;2.47;;
32242;SDS011;18731;42.830;24.390;2022-11-21T05:40:22;8.48;;;1.42;;
32242;SDS011;18731;42.830;24.390;2022-11-21T05:42:49;17.48;;;2.88;;
32242;SDS011;18731;42.830;24.390;2022-11-21T05:45:33;8.07;;;1.90;;
32242;SDS011;18731;42.830;24.390;2022-11-21T05:47:59;10.20;;;2.45;;
32242;SDS011;18731;42.830;24.390;2022-11-21T05:50:24;16.17;;;7.25;;
32242;SDS011;18731;42.830;24.390;2022-11-21T05:52:50;28.05;;;8.40;;
32242;SDS011;18731;42.830;24.390;2022-11-21T05:55:15;16.50;;;4.88;;
32242;SDS011;18731;42.830;24.390;2022-11-21T05:57:41;23.58;;;5.00;;
32242;SDS011;18731;42.830;24.390;2022-11-21T06:00:07;18.75;;;5.97;;
32242;SDS011;18731;42.830;24.390;2022-11-21T06:02:33;12.68;;;2.92;;
32242;SDS011;18731;42.830;24.390;2022-11-21T06:05:17;15.73;;;4.30;;
32242;SDS011;18731;42.830;24.390;2022-11-21T06:07:43;12.45;;;2.60;;
32242;SDS011;18731;42.830;24.390;2022-11-21T06:10:08;9.90;;;3.05;;
32242;SDS011;18731;42.830;24.390;2022-11-21T06:12:34;13.10;;;1.70;;
32242;SDS011;18731;42.830;24.390;2022-11-21T06:15:00;9.82;;;3.42;;
32242;SDS011;18731;42.830;24.390;2022-11-21T06:17:25;16.27;;;3.50;;
32242;SDS011;18731;42.830;24.390;2022-11-21T06:19:51;12.13;;;2.42;;
32242;SDS011;18731;42.830;24.390;2022-11-21T06:22:17;8.88;;;2.40;;
32242;SDS011;18731;42.830;24.390;2022-11-21T06:24:42;27.33;;;9.15;;
32242;SDS011;18731;42.830;24.390;2022-11-21T06:27:08;13.43;;;4.53;;
32242;SDS011;18731;42.830;24.390;2022-11-21T06:29:34;11.00;;;3.05;;
32242;SDS011;18731;42.830;24.390;2022-11-21T06:31:59;14.90;;;1.90;;
32242;SDS011;18731;42.830;24.390;2022-11-21T06:34:25;15.45;;;3.33;;
32242;SDS011;18731;42.830;24.390;2022-11-21T06:36:51;13.38;;;3.60;;
32242;SDS011;18731;42.830;24.390;2022-11-21T06:39:17;12.18;;;2.92;;
32242;SDS011;18731;42.830;24.390;2022-11-21T06:41:42;18.45;;;4.13;;
32242;SDS011;18731;42.830;24.390;2022-11-21T06:44:17;13.55;;;5.40;;
32242;SDS011;18731;42.830;24.390;2022-11-21T06:46:43;20.63;;;4.53;;
32242;SDS011;18731;42.830;24.390;2022-11-21T06:49:09;9.55;;;3.17;;
32242;SDS011;18731;42.830;24.390;2022-11-21T06:51:34;15.40;;;2.60;;
32242;SDS011;18731;42.830;24.390;2022-11-21T06:54:00;11.98;;;2.55;;
32242;SDS011;18731;42.830;24.390;2022-11-21T06:56:27;8.88;;;1.98;;
32242;SDS011;18731;42.830;24.390;2022-11-21T06:58:54;16.40;;;4.07;;
32242;SDS011;18731;42.830;24.390;2022-11-21T07:01:20;15.27;;;5.38;;
32242;SDS011;18731;42.830;24.390;2022-11-21T07:03:46;13.30;;;5.60;;
32242;SDS011;18731;42.830;24.390;2022-11-21T07:06:12;15.95;;;4.85;;
32242;SDS011;18731;42.830;24.390;2022-11-21T07:08:38;16.20;;;3.70;;
32242;SDS011;18731;42.830;24.390;2022-11-21T07:11:08;11.32;;;3.72;;
32242;SDS011;18731;42.830;24.390;2022-11-21T07:13:35;8.35;;;3.25;;
32242;SDS011;18731;42.830;24.390;2022-11-21T07:16:02;9.07;;;3.50;;
32242;SDS011;18731;42.830;24.390;2022-11-21T07:18:30;10.90;;;3.50;;
32242;SDS011;18731;42.830;24.390;2022-11-21T07:20:57;13.02;;;3.55;;
32242;SDS011;18731;42.830;24.390;2022-11-21T07:23:23;10.70;;;3.15;;
32242;SDS011;18731;42.830;24.390;2022-11-21T07:25:49;9.80;;;2.92;;
32242;SDS011;18731;42.830;24.390;2022-11-21T07:28:15;11.60;;;3.20;;
32242;SDS011;18731;42.830;24.390;2022-11-21T07:30:41;8.57;;;3.00;;
32242;SDS011;18731;42.830;24.390;2022-11-21T07:33:06;9.23;;;2.70;;
32242;SDS011;18731;42.830;24.390;2022-11-21T07:35:34;5.30;;;2.15;;
32242;SDS011;18731;42.830;24.390;2022-11-21T07:38:00;11.70;;;2.80;;
32242;SDS011;18731;42.830;24.390;2022-11-21T07:40:27;8.10;;;3.10;;
32242;SDS011;18731;42.830;24.390;2022-11-21T07:42:53;6.13;;;2.60;;
32242;SDS011;18731;42.830;24.390;2022-11-21T07:45:19;6.75;;;2.30;;
32242;SDS011;18731;42.830;24.390;2022-11-21T07:47:44;10.82;;;2.35;;
32242;SDS011;18731;42.830;24.390;2022-11-21T07:50:11;5.00;;;2.30;;
32242;SDS011;18731;42.830;24.390;2022-11-21T07:52:37;7.68;;;2.70;;
32242;SDS011;18731;42.830;24.390;2022-11-21T07:55:03;4.45;;;2.13;;
32242;SDS011;18731;42.830;24.390;2022-11-21T07:57:30;7.38;;;2.10;;
32242;SDS011;18731;42.830;24.390;2022-11-21T07:59:56;3.17;;;1.80;;
32242;SDS011;18731;42.830;24.390;2022-11-21T08:02:23;6.13;;;1.98;;
32242;SDS011;18731;42.830;24.390;2022-11-21T08:04:52;4.07;;;2.00;;
32242;SDS011;18731;42.830;24.390;2022-11-21T08:07:19;3.38;;;2.10;;
32242;SDS011;18731;42.830;24.390;2022-11-21T08:09:46;3.20;;;2.00;;
32242;SDS011;18731;42.830;24.390;2022-11-21T08:12:12;5.38;;;2.25;;
32242;SDS011;18731;42.830;24.390;2022-11-21T08:14:39;4.60;;;2.45;;
32242;SDS011;18731;42.830;24.390;2022-11-21T08:17:05;5.15;;;3.00;;
32242;SDS011;18731;42.830;24.390;2022-11-21T08:19:31;3.05;;;2.15;;
32242;SDS011;18731;42.830;24.390;2022-11-21T08:21:57;3.55;;;2.00;;
32242;SDS011;18731;42.830;24.390;2022-11-21T08:24:23;2.47;;;1.73;;
32242;SDS011;18731;42.830;24.390;2022-11-21T08:26:49;6.13;;;1.90;;
32242;SDS011;18731;42.830;24.390;2022-11-21T08:29:16;7.10;;;2.60;;
32242;SDS011;18731;42.830;24.390;2022-11-21T08:31:42;3.13;;;1.70;;
32242;SDS011;18731;42.830;24.390;2022-11-21T08:34:08;4.07;;;1.80;;
32242;SDS011;18731;42.830;24.390;2022-11-21T08:36:35;3.35;;;1.90;;
32242;SDS011;18731;42.830;24.390;2022-11-21T08:39:01;3.97;;;1.65;;
32242;SDS011;18731;42.830;24.390;2022-11-21T08:41:27;1.77;;;1.65;;
32242;SDS011;18731;42.830;24.390;2022-11-21T08:44:11;4.97;;;1.90;;
32242;SDS011;18731;42.830;24.390;2022-11-21T08:46:37;3.55;;;1.70;;
32242;SDS011;18731;42.830;24.390;2022-11-21T08:49:03;5.75;;;1.50;;
32242;SDS011;18731;42.830;24.390;2022-11-21T08:51:29;3.75;;;1.80;;
32242;SDS011;18731;42.830;24.390;2022-11-21T08:53:54;2.17;;;1.42;;
32242;SDS011;18731;42.830;24.390;2022-11-21T08:56:20;1.92;;;1.30;;
32242;SDS011;18731;42.830;24.390;2022-11-21T08:58:46;2.47;;;1.35;;
32242;SDS011;18731;42.830;24.390;2022-11-21T09:01:11;1.77;;;1.50;;
32242;SDS011;18731;42.830;24.390;2022-11-21T09:03:37;2.70;;;1.40;;
32242;SDS011;18731;42.830;24.390;2022-11-21T09:06:03;1.98;;;1.52;;
32242;SDS011;18731;42.830;24.390;2022-11-21T09:08:29;3.80;;;1.42;;
32242;SDS011;18731;42.830;24.390;2022-11-21T09:10:55;2.45;;;1.17;;
32242;SDS011;18731;42.830;24.390;2022-11-21T09:13:21;2.17;;;1.20;;
32242;SDS011;18731;42.830;24.390;2022-11-21T09:15:47;1.85;;;1.00;;
32242;SDS011;18731;42.830;24.390;2022-11-21T09:18:32;4.20;;;1.00;;
32242;SDS011;18731;42.830;24.390;2022-11-21T09:20:58;1.00;;;0.80;;
32242;SDS011;18731;42.830;24.390;2022-11-21T09:23:23;1.20;;;1.10;;
32242;SDS011;18731;42.830;24.390;2022-11-21T09:25:49;1.10;;;1.00;;
32242;SDS011;18731;42.830;24.390;2022-11-21T09:28:15;2.80;;;0.70;;
32242;SDS011;18731;42.830;24.390;2022-11-21T09:30:41;0.73;;;0.60;;
32242;SDS011;18731;42.830;24.390;2022-11-21T09:33:11;2.10;;;1.17;;
32242;SDS011;18731;42.830;24.390;2022-11-21T09:35:38;1.40;;;0.82;;
32242;SDS011;18731;42.830;24.390;2022-11-21T09:38:04;1.13;;;0.95;;
32242;SDS011;18731;42.830;24.390;2022-11-21T09:40:30;4.20;;;1.52;;
32242;SDS011;18731;42.830;24.390;2022-11-21T09:46:16;2.88;;;2.10;;
32242;SDS011;18731;42.830;24.390;2022-11-21T09:51:22;0.93;;;0.90;;
32242;SDS011;18731;42.830;24.390;2022-11-21T09:56:55;1.48;;;1.10;;
32242;SDS011;18731;42.830;24.390;2022-11-21T09:59:36;0.60;;;0.60;;
32242;SDS011;18731;42.830;24.390;2022-11-21T10:02:36;1.52;;;1.20;;
32242;SDS011;18731;42.830;24.390;2022-11-21T10:04:54;2.92;;;2.03;;
32242;SDS011;18731;42.830;24.390;2022-11-21T10:07:31;2.47;;;1.52;;
32242;SDS011;18731;42.830;24.390;2022-11-21T10:10:11;2.38;;;1.60;;
32242;SDS011;18731;42.830;24.390;2022-11-21T10:28:50;3.15;;;1.85;;
32242;SDS011;18731;42.830;24.390;2022-11-21T10:31:23;1.67;;;1.30;;
32242;SDS011;18731;42.830;24.390;2022-11-21T10:33:55;1.30;;;1.00;;
32242;SDS011;18731;42.830;24.390;2022-11-21T10:36:28;2.47;;;1.63;;
32242;SDS011;18731;42.830;24.390;2022-11-21T10:38:59;5.20;;;1.50;;
32242;SDS011;18731;42.830;24.390;2022-11-21T10:44:14;1.38;;;1.13;;
32242;SDS011;18731;42.830;24.390;2022-11-21T10:49:38;2.38;;;0.90;;
32242;SDS011;18731;42.830;24.390;2022-11-21T10:52:05;4.38;;;1.80;;
32242;SDS011;18731;42.830;24.390;2022-11-21T10:57:43;8.10;;;3.27;;
32242;SDS011;18731;42.830;24.390;2022-11-21T11:02:42;4.72;;;1.67;;
32242;SDS011;18731;42.830;24.390;2022-11-21T11:05:35;1.30;;;1.20;;
32242;SDS011;18731;42.830;24.390;2022-11-21T11:10:42;3.70;;;2.65;;
32242;SDS011;18731;42.830;24.390;2022-11-21T11:13:25;4.75;;;1.90;;
32242;SDS011;18731;42.830;24.390;2022-11-21T11:16:04;2.38;;;1.48;;
32242;SDS011;18731;42.830;24.390;2022-11-21T11:23:53;1.77;;;1.40;;
32242;SDS011;18731;42.830;24.390;2022-11-21T11:26:30;2.78;;;0.90;;
32242;SDS011;18731;42.830;24.390;2022-11-21T11:29:06;1.00;;;0.90;;
32242;SDS011;18731;42.830;24.390;2022-11-21T11:34:07;8.32;;;1.60;;
32242;SDS011;18731;42.830;24.390;2022-11-21T11:36:40;3.10;;;1.90;;
32242;SDS011;18731;42.830;24.390;2022-11-21T11:45:34;3.13;;;2.50;;
32242;SDS011;18731;42.830;24.390;2022-11-21T11:48:22;2.80;;;1.95;;
32242;SDS011;18731;42.830;24.390;2022-11-21T11:50:49;3.58;;;1.40;;
32242;SDS011;18731;42.830;24.390;2022-11-21T11:53:18;4.78;;;1.40;;
32242;SDS011;18731;42.830;24.390;2022-11-21T12:01:06;2.08;;;1.52;;
32242;SDS011;18731;42.830;24.390;2022-11-21T12:03:47;4.68;;;1.77;;
32242;SDS011;18731;42.830;24.390;2022-11-21T12:06:16;8.07;;;4.00;;
32242;SDS011;18731;42.830;24.390;2022-11-21T12:20:25;2.38;;;1.88;;
32242;SDS011;18731;42.830;24.390;2022-11-21T12:22:54;1.90;;;1.50;;
32242;SDS011;18731;42.830;24.390;2022-11-21T12:25:27;2.50;;;1.50;;
32242;SDS011;18731;42.830;24.390;2022-11-21T12:27:55;3.83;;;1.75;;
32242;SDS011;18731;42.830;24.390;2022-11-21T12:33:21;2.00;;;1.80;;
32242;SDS011;18731;42.830;24.390;2022-11-21T12:41:31;4.40;;;2.50;;
32242;SDS011;18731;42.830;24.390;2022-11-21T12:44:47;2.97;;;2.22;;
32242;SDS011;18731;42.830;24.390;2022-11-21T12:47:36;2.20;;;1.77;;
32242;SDS011;18731;42.830;24.390;2022-11-21T12:50:52;5.35;;;1.80;;
32242;SDS011;18731;42.830;24.390;2022-11-21T12:53:45;1.70;;;1.55;;
32242;SDS011;18731;42.830;24.390;2022-11-21T12:56:43;4.28;;;1.88;;
32242;SDS011;18731;42.830;24.390;2022-11-21T12:59:11;4.75;;;2.28;;
32242;SDS011;18731;42.830;24.390;2022-11-21T13:04:25;7.32;;;1.42;;
32242;SDS011;18731;42.830;24.390;2022-11-21T13:06:54;1.77;;;1.52;;
32242;SDS011;18731;42.830;24.390;2022-11-21T13:09:22;2.03;;;1.48;;
32242;SDS011;18731;42.830;24.390;2022-11-21T13:11:59;2.20;;;1.58;;
32242;SDS011;18731;42.830;24.390;2022-11-21T13:27:54;3.75;;;2.35;;
32242;SDS011;18731;42.830;24.390;2022-11-21T13:30:52;4.80;;;2.25;;
32242;SDS011;18731;42.830;24.390;2022-11-21T13:36:00;6.05;;;4.10;;
32242;SDS011;18731;42.830;24.390;2022-11-21T13:46:57;4.60;;;3.38;;
32242;SDS011;18731;42.830;24.390;2022-11-21T13:50:15;5.68;;;2.50;;
32242;SDS011;18731;42.830;24.390;2022-11-21T13:52:56;3.45;;;2.20;;
32242;SDS011;18731;42.830;24.390;2022-11-21T13:58:27;3.00;;;1.60;;
32242;SDS011;18731;42.830;24.390;2022-11-21T14:01:01;2.85;;;1.50;;
32242;SDS011;18731;42.830;24.390;2022-11-21T14:06:33;1.85;;;1.38;;
32242;SDS011;18731;42.830;24.390;2022-11-21T14:09:18;3.65;;;2.08;;
32242;SDS011;18731;42.830;24.390;2022-11-21T14:14:23;3.17;;;1.90;;
32242;SDS011;18731;42.830;24.390;2022-11-21T14:17:08;4.85;;;2.20;;
32242;SDS011;18731;42.830;24.390;2022-11-21T14:19:50;5.38;;;1.98;;
32242;SDS011;18731;42.830;24.390;2022-11-21T14:24:53;5.68;;;3.28;;
32242;SDS011;18731;42.830;24.390;2022-11-21T14:27:23;5.60;;;2.78;;
32242;SDS011;18731;42.830;24.390;2022-11-21T14:29:52;6.28;;;2.92;;
32242;SDS011;18731;42.830;24.390;2022-11-21T14:32:24;4.28;;;1.92;;
32242;SDS011;18731;42.830;24.390;2022-11-21T14:34:51;4.80;;;2.30;;
32242;SDS011;18731;42.830;24.390;2022-11-21T14:37:16;4.97;;;2.25;;
32242;SDS011;18731;42.830;24.390;2022-11-21T14:39:43;8.18;;;2.22;;
32242;SDS011;18731;42.830;24.390;2022-11-21T14:42:10;20.45;;;4.50;;
32242;SDS011;18731;42.830;24.390;2022-11-21T14:44:39;9.80;;;3.83;;
32242;SDS011;18731;42.830;24.390;2022-11-21T14:47:25;8.68;;;4.10;;
32242;SDS011;18731;42.830;24.390;2022-11-21T14:49:51;19.02;;;6.78;;
32242;SDS011;18731;42.830;24.390;2022-11-21T14:52:27;29.25;;;8.70;;
32242;SDS011;18731;42.830;24.390;2022-11-21T14:54:56;9.80;;;4.32;;
32242;SDS011;18731;42.830;24.390;2022-11-21T14:57:28;8.98;;;3.28;;
32242;SDS011;18731;42.830;24.390;2022-11-21T14:59:58;9.97;;;3.20;;
32242;SDS011;18731;42.830;24.390;2022-11-21T15:02:25;10.77;;;4.60;;
32242;SDS011;18731;42.830;24.390;2022-11-21T15:04:58;9.88;;;3.92;;
32242;SDS011;18731;42.830;24.390;2022-11-21T15:07:27;3.20;;;2.40;;
32242;SDS011;18731;42.830;24.390;2022-11-21T15:09:59;3.60;;;1.58;;
32242;SDS011;18731;42.830;24.390;2022-11-21T15:12:40;4.07;;;1.60;;
32242;SDS011;18731;42.830;24.390;2022-11-21T15:17:59;6.25;;;2.75;;
32242;SDS011;18731;42.830;24.390;2022-11-21T15:20:27;5.68;;;2.80;;
32242;SDS011;18731;42.830;24.390;2022-11-21T15:22:55;8.65;;;2.90;;
32242;SDS011;18731;42.830;24.390;2022-11-21T15:25:31;7.72;;;3.85;;
32242;SDS011;18731;42.830;24.390;2022-11-21T15:28:15;5.15;;;2.72;;
32242;SDS011;18731;42.830;24.390;2022-11-21T15:30:42;10.65;;;4.47;;
32242;SDS011;18731;42.830;24.390;2022-11-21T15:33:15;9.27;;;4.72;;
32242;SDS011;18731;42.830;24.390;2022-11-21T15:40:53;14.75;;;8.10;;
32242;SDS011;18731;42.830;24.390;2022-11-21T15:43:43;17.13;;;10.55;;
32242;SDS011;18731;42.830;24.390;2022-11-21T15:46:14;28.17;;;19.17;;
32242;SDS011;18731;42.830;24.390;2022-11-21T15:48:47;31.05;;;17.85;;
32242;SDS011;18731;42.830;24.390;2022-11-21T15:51:39;26.80;;;17.75;;
32242;SDS011;18731;42.830;24.390;2022-11-21T15:54:17;29.65;;;16.83;;
32242;SDS011;18731;42.830;24.390;2022-11-21T15:56:44;24.98;;;12.55;;
32242;SDS011;18731;42.830;24.390;2022-11-21T15:59:11;20.42;;;12.25;;
32242;SDS011;18731;42.830;24.390;2022-11-21T16:01:37;13.15;;;7.70;;
32242;SDS011;18731;42.830;24.390;2022-11-21T16:04:07;11.02;;;5.53;;
32242;SDS011;18731;42.830;24.390;2022-11-21T16:06:37;9.43;;;4.80;;
32242;SDS011;18731;42.830;24.390;2022-11-21T16:09:03;14.55;;;9.73;;
32242;SDS011;18731;42.830;24.390;2022-11-21T16:11:30;14.93;;;6.85;;
32242;SDS011;18731;42.830;24.390;2022-11-21T16:14:00;12.63;;;6.45;;
32242;SDS011;18731;42.830;24.390;2022-11-21T16:16:27;5.90;;;3.92;;
32242;SDS011;18731;42.830;24.390;2022-11-21T16:18:55;9.27;;;5.00;;
32242;SDS011;18731;42.830;24.390;2022-11-21T16:21:21;18.70;;;8.52;;
32242;SDS011;18731;42.830;24.390;2022-11-21T16:23:47;23.20;;;11.98;;
32242;SDS011;18731;42.830;24.390;2022-11-21T16:26:13;14.35;;;7.97;;
32242;SDS011;18731;42.830;24.390;2022-11-21T16:28:39;22.70;;;13.82;;
32242;SDS011;18731;42.830;24.390;2022-11-21T16:31:05;28.08;;;16.73;;
32242;SDS011;18731;42.830;24.390;2022-11-21T16:33:31;29.02;;;16.23;;
32242;SDS011;18731;42.830;24.390;2022-11-21T16:35:59;24.52;;;14.45;;
32242;SDS011;18731;42.830;24.390;2022-11-21T16:38:25;26.92;;;13.80;;
32242;SDS011;18731;42.830;24.390;2022-11-21T16:40:56;24.38;;;12.88;;
32242;SDS011;18731;42.830;24.390;2022-11-21T16:43:24;18.50;;;12.05;;
32242;SDS011;18731;42.830;24.390;2022-11-21T16:45:51;20.95;;;13.60;;
32242;SDS011;18731;42.830;24.390;2022-11-21T16:48:17;24.20;;;12.95;;
32242;SDS011;18731;42.830;24.390;2022-11-21T16:50:44;20.88;;;11.85;;
32242;SDS011;18731;42.830;24.390;2022-11-21T16:53:09;21.42;;;12.57;;
32242;SDS011;18731;42.830;24.390;2022-11-21T16:55:35;24.13;;;12.05;;
32242;SDS011;18731;42.830;24.390;2022-11-21T16:58:01;18.25;;;11.85;;
32242;SDS011;18731;42.830;24.390;2022-11-21T17:00:27;20.83;;;12.20;;
32242;SDS011;18731;42.830;24.390;2022-11-21T17:02:53;23.13;;;10.43;;
32242;SDS011;18731;42.830;24.390;2022-11-21T17:05:19;17.40;;;10.30;;
32242;SDS011;18731;42.830;24.390;2022-11-21T17:07:45;15.02;;;9.23;;
32242;SDS011;18731;42.830;24.390;2022-11-21T17:10:11;16.02;;;9.32;;
32242;SDS011;18731;42.830;24.390;2022-11-21T17:12:38;14.32;;;9.75;;
32242;SDS011;18731;42.830;24.390;2022-11-21T17:15:06;18.08;;;10.57;;
32242;SDS011;18731;42.830;24.390;2022-11-21T17:17:34;16.70;;;10.43;;
32242;SDS011;18731;42.830;24.390;2022-11-21T17:20:01;16.88;;;10.20;;
32242;SDS011;18731;42.830;24.390;2022-11-21T17:22:27;16.98;;;9.95;;
32242;SDS011;18731;42.830;24.390;2022-11-21T17:24:52;20.02;;;9.90;;
32242;SDS011;18731;42.830;24.390;2022-11-21T17:27:19;15.13;;;6.55;;
32242;SDS011;18731;42.830;24.390;2022-11-21T17:29:45;13.93;;;6.25;;
32242;SDS011;18731;42.830;24.390;2022-11-21T17:32:10;37.13;;;9.82;;
32242;SDS011;18731;42.830;24.390;2022-11-21T17:34:36;21.73;;;8.63;;
32242;SDS011;18731;42.830;24.390;2022-11-21T17:37:02;8.88;;;4.63;;
32242;SDS011;18731;42.830;24.390;2022-11-21T17:39:28;6.07;;;3.70;;
32242;SDS011;18731;42.830;24.390;2022-11-21T17:41:53;5.25;;;2.78;;
32242;SDS011;18731;42.830;24.390;2022-11-21T17:44:19;4.10;;;3.10;;
32242;SDS011;18731;42.830;24.390;2022-11-21T17:46:45;10.13;;;3.90;;
32242;SDS011;18731;42.830;24.390;2022-11-21T17:49:11;7.43;;;3.80;;
32242;SDS011;18731;42.830;24.390;2022-11-21T17:51:38;8.70;;;4.95;;
32242;SDS011;18731;42.830;24.390;2022-11-21T17:54:05;5.72;;;3.90;;
32242;SDS011;18731;42.830;24.390;2022-11-21T17:56:35;10.27;;;4.93;;
32242;SDS011;18731;42.830;24.390;2022-11-21T17:59:03;6.68;;;4.60;;
32242;SDS011;18731;42.830;24.390;2022-11-21T18:01:30;9.82;;;5.43;;
32242;SDS011;18731;42.830;24.390;2022-11-21T18:04:00;10.20;;;6.80;;
32242;SDS011;18731;42.830;24.390;2022-11-21T18:06:29;9.57;;;6.30;;
32242;SDS011;18731;42.830;24.390;2022-11-21T18:08:58;11.20;;;6.30;;
32242;SDS011;18731;42.830;24.390;2022-11-21T18:11:26;8.55;;;5.30;;
32242;SDS011;18731;42.830;24.390;2022-11-21T18:13:53;6.93;;;4.65;;
32242;SDS011;18731;42.830;24.390;2022-11-21T18:16:20;7.22;;;4.55;;
32242;SDS011;18731;42.830;24.390;2022-11-21T18:18:48;12.73;;;4.70;;
32242;SDS011;18731;42.830;24.390;2022-11-21T18:21:16;7.15;;;4.18;;
32242;SDS011;18731;42.830;24.390;2022-11-21T18:23:46;6.35;;;3.92;;
32242;SDS011;18731;42.830;24.390;2022-11-21T18:26:13;6.97;;;3.95;;
32242;SDS011;18731;42.830;24.390;2022-11-21T18:28:50;7.93;;;4.17;;
32242;SDS011;18731;42.830;24.390;2022-11-21T18:31:19;6.68;;;4.57;;
32242;SDS011;18731;42.830;24.390;2022-11-21T18:33:47;9.32;;;3.95;;
32242;SDS011;18731;42.830;24.390;2022-11-21T18:36:14;5.63;;;2.70;;
32242;SDS011;18731;42.830;24.390;2022-11-21T18:38:41;3.45;;;2.58;;
32242;SDS011;18731;42.830;24.390;2022-11-21T18:41:12;7.05;;;2.72;;
32242;SDS011;18731;42.830;24.390;2022-11-21T18:43:40;4.63;;;2.70;;
32242;SDS011;18731;42.830;24.390;2022-11-21T18:46:11;3.55;;;2.40;;
32242;SDS011;18731;42.830;24.390;2022-11-21T18:48:38;4.43;;;2.83;;
32242;SDS011;18731;42.830;24.390;2022-11-21T18:51:14;5.88;;;2.80;;
32242;SDS011;18731;42.830;24.390;2022-11-21T18:53:41;7.00;;;2.70;;
32242;SDS011;18731;42.830;24.390;2022-11-21T18:56:11;3.38;;;2.53;;
32242;SDS011;18731;42.830;24.390;2022-11-21T18:58:39;2.28;;;1.92;;
32242;SDS011;18731;42.830;24.390;2022-11-21T19:01:09;2.85;;;2.20;;
32242;SDS011;18731;42.830;24.390;2022-11-21T19:03:42;3.88;;;2.00;;
32242;SDS011;18731;42.830;24.390;2022-11-21T19:06:09;4.25;;;2.40;;
32242;SDS011;18731;42.830;24.390;2022-11-21T19:08:37;4.90;;;2.50;;
32242;SDS011;18731;42.830;24.390;2022-11-21T19:11:05;4.93;;;2.88;;
32242;SDS011;18731;42.830;24.390;2022-11-21T19:13:32;3.30;;;2.22;;
32242;SDS011;18731;42.830;24.390;2022-11-21T19:16:02;4.45;;;2.42;;
32242;SDS011;18731;42.830;24.390;2022-11-21T19:18:31;4.00;;;2.55;;
32242;SDS011;18731;42.830;24.390;2022-11-21T19:21:02;4.88;;;2.78;;
32242;SDS011;18731;42.830;24.390;2022-11-21T19:23:29;2.55;;;2.15;;
32242;SDS011;18731;42.830;24.390;2022-11-21T19:25:59;4.03;;;2.55;;
32242;SDS011;18731;42.830;24.390;2022-11-21T19:28:26;5.93;;;2.55;;
32242;SDS011;18731;42.830;24.390;2022-11-21T19:30:54;2.47;;;2.25;;
32242;SDS011;18731;42.830;24.390;2022-11-21T19:33:21;3.83;;;2.60;;
32242;SDS011;18731;42.830;24.390;2022-11-21T19:35:47;2.83;;;2.47;;
32242;SDS011;18731;42.830;24.390;2022-11-21T19:38:13;2.33;;;2.13;;
32242;SDS011;18731;42.830;24.390;2022-11-21T19:40:38;3.70;;;2.60;;
32242;SDS011;18731;42.830;24.390;2022-11-21T19:43:22;2.97;;;2.30;;